Time;durP1;ratioP1;P1;durP2;ratioP2;P2;SDS_P1;SDS_P2;PMS_P1;PMS_P2;Temp;Humidity;BMP_temperature;BMP_pressure;BME280_temperature;BME280_humidity;BME280_pressure;Samples;Min_cycle;Max_cycle;Signal;HPM_P1;HPM_P2
2023/03/21 00:00:44;;;;;;;81.95;22.08;;;;;;;;;;5115625;27;20036;-69
2023/03/21 00:03:10;;;;;;;68.68;19.42;;;;;;;;;;5116177;27;20039;-68
2023/03/21 00:05:40;;;;;;;83.75;21.80;;;;;;;;;;5115991;27;20090;-68
2023/03/21 00:08:06;;;;;;;68.75;20.50;;;;;;;;;;5115840;27;20050;-69
2023/03/21 00:10:32;;;;;;;88.10;19.98;;;;;;;;;;5115898;27;20043;-68
2023/03/21 00:12:59;;;;;;;101.32;21.27;;;;;;;;;;5115786;27;20039;-68
2023/03/21 00:15:26;;;;;;;104.65;23.40;;;;;;;;;;5150571;27;20127;-68
2023/03/21 00:18:02;;;;;;;84.40;21.80;;;;;;;;;;5115611;27;20043;-68
2023/03/21 00:20:36;;;;;;;80.65;20.23;;;;;;;;;;5115393;27;20478;-69
2023/03/21 00:23:02;;;;;;;73.60;20.55;;;;;;;;;;5115641;27;20075;-68
2023/03/21 00:25:30;;;;;;;70.18;20.92;;;;;;;;;;5098833;27;20050;-68
2023/03/21 00:27:56;;;;;;;76.88;20.83;;;;;;;;;;5099124;27;20039;-69
2023/03/21 00:30:23;;;;;;;71.75;19.75;;;;;;;;;;5115489;27;20046;-68
2023/03/21 00:32:49;;;;;;;73.47;21.20;;;;;;;;;;5115919;27;20050;-69
2023/03/21 00:35:15;;;;;;;70.88;20.25;;;;;;;;;;5115679;27;20050;-68
2023/03/21 00:37:41;;;;;;;66.03;19.13;;;;;;;;;;5115586;27;20096;-69
2023/03/21 00:40:09;;;;;;;57.28;17.50;;;;;;;;;;5115366;27;20048;-68
2023/03/21 00:42:35;;;;;;;48.33;16.40;;;;;;;;;;5115624;27;20039;-68
2023/03/21 00:45:02;;;;;;;45.15;15.75;;;;;;;;;;5115768;27;20035;-68
2023/03/21 00:47:28;;;;;;;43.60;15.43;;;;;;;;;;5115371;27;20126;-69
2023/03/21 00:49:54;;;;;;;42.85;15.48;;;;;;;;;;5115888;28;20130;-68
2023/03/21 00:52:21;;;;;;;46.35;14.82;;;;;;;;;;5115526;28;20122;-68
2023/03/21 00:54:47;;;;;;;53.30;18.13;;;;;;;;;;5116079;28;20057;-68
2023/03/21 00:57:13;;;;;;;64.32;20.23;;;;;;;;;;5098501;28;20039;-68
2023/03/21 00:59:39;;;;;;;68.78;20.92;;;;;;;;;;5115283;28;20039;-68
2023/03/21 01:02:06;;;;;;;75.93;23.63;;;;;;;;;;5115767;28;20043;-69
2023/03/21 01:04:33;;;;;;;75.32;23.38;;;;;;;;;;5115579;27;20386;-68
2023/03/21 01:06:59;;;;;;;78.90;26.65;;;;;;;;;;5115177;28;20039;-69
2023/03/21 01:09:25;;;;;;;78.70;24.25;;;;;;;;;;5095646;28;20051;-71
2023/03/21 01:11:52;;;;;;;86.53;26.45;;;;;;;;;;5115377;27;20092;-71
2023/03/21 01:14:19;;;;;;;84.05;27.60;;;;;;;;;;5118673;27;20070;-71
2023/03/21 01:16:45;;;;;;;101.45;29.77;;;;;;;;;;5119331;27;20039;-71
2023/03/21 01:19:12;;;;;;;92.63;28.75;;;;;;;;;;5119474;27;20062;-72
2023/03/21 01:21:38;;;;;;;89.40;28.55;;;;;;;;;;5102597;27;20439;-71
2023/03/21 01:24:04;;;;;;;118.80;32.40;;;;;;;;;;5137159;27;20054;-71
2023/03/21 01:26:30;;;;;;;114.35;32.58;;;;;;;;;;5119420;27;20030;-72
2023/03/21 01:28:56;;;;;;;137.38;34.78;;;;;;;;;;5102487;27;20047;-72
2023/03/21 01:31:22;;;;;;;125.75;35.58;;;;;;;;;;5119178;27;20065;-71
2023/03/21 01:33:48;;;;;;;129.73;33.65;;;;;;;;;;5119103;27;20043;-71
2023/03/21 01:36:16;;;;;;;111.43;32.72;;;;;;;;;;5119349;27;20047;-71
2023/03/21 01:38:42;;;;;;;122.47;32.50;;;;;;;;;;5081735;28;20043;-71
2023/03/21 01:41:16;;;;;;;114.55;31.85;;;;;;;;;;5109846;27;20035;-71
2023/03/21 01:43:42;;;;;;;113.40;34.03;;;;;;;;;;5118763;27;20031;-72
2023/03/21 01:46:20;;;;;;;126.03;33.70;;;;;;;;;;5119010;27;20042;-71
2023/03/21 01:48:49;;;;;;;99.95;32.58;;;;;;;;;;5118716;27;20503;-71
2023/03/21 01:51:15;;;;;;;107.32;31.70;;;;;;;;;;5119431;27;20043;-71
2023/03/21 01:53:42;;;;;;;109.30;33.53;;;;;;;;;;5118814;27;20039;-71
2023/03/21 01:56:11;;;;;;;96.65;31.52;;;;;;;;;;5119116;27;20111;-71
2023/03/21 01:58:38;;;;;;;84.55;29.83;;;;;;;;;;5118465;27;20046;-71
2023/03/21 02:01:05;;;;;;;85.80;27.98;;;;;;;;;;5118535;27;20039;-71
2023/03/21 02:03:40;;;;;;;87.70;28.45;;;;;;;;;;5136823;27;20035;-72
2023/03/21 02:06:13;;;;;;;80.95;28.40;;;;;;;;;;5101365;27;20494;-71
2023/03/21 02:08:39;;;;;;;89.90;29.15;;;;;;;;;;5118393;27;20039;-71
2023/03/21 02:11:06;;;;;;;89.40;29.80;;;;;;;;;;5118476;27;20121;-71
2023/03/21 02:13:32;;;;;;;82.15;29.15;;;;;;;;;;5101822;27;20047;-71
2023/03/21 02:16:01;;;;;;;92.32;29.17;;;;;;;;;;5118413;27;20043;-71
2023/03/21 02:18:27;;;;;;;77.20;26.45;;;;;;;;;;5118468;27;20382;-71
2023/03/21 02:21:18;;;;;;;90.47;28.00;;;;;;;;;;5118439;27;20437;-71
2023/03/21 02:23:44;;;;;;;86.70;26.85;;;;;;;;;;5117256;27;20126;-71
2023/03/21 02:26:10;;;;;;;75.85;25.95;;;;;;;;;;5118197;27;20031;-71
2023/03/21 02:28:43;;;;;;;79.20;26.42;;;;;;;;;;5118041;27;20372;-71
2023/03/21 02:31:09;;;;;;;84.20;27.10;;;;;;;;;;5117853;27;20046;-71
2023/03/21 02:33:35;;;;;;;84.72;26.15;;;;;;;;;;5118052;27;20380;-71
2023/03/21 02:36:01;;;;;;;73.18;25.27;;;;;;;;;;5100523;27;20043;-71
2023/03/21 02:38:32;;;;;;;76.07;24.98;;;;;;;;;;5117819;27;20062;-71
2023/03/21 02:40:58;;;;;;;71.10;25.33;;;;;;;;;;5117970;27;20035;-71
2023/03/21 02:43:29;;;;;;;69.82;24.65;;;;;;;;;;5117932;27;20157;-71
2023/03/21 02:46:19;;;;;;;69.18;24.88;;;;;;;;;;5101015;27;20078;-71
2023/03/21 02:48:48;;;;;;;64.57;24.10;;;;;;;;;;5104762;27;20042;-71
2023/03/21 02:51:15;;;;;;;68.03;23.63;;;;;;;;;;5100686;27;20498;-72
2023/03/21 02:53:44;;;;;;;59.40;21.38;;;;;;;;;;5117578;27;20510;-72
2023/03/21 02:56:11;;;;;;;62.72;22.48;;;;;;;;;;5117496;27;20490;-72
2023/03/21 02:58:38;;;;;;;49.95;20.33;;;;;;;;;;5117177;27;20510;-72
2023/03/21 03:01:05;;;;;;;62.60;21.42;;;;;;;;;;5117671;27;20035;-72
2023/03/21 03:03:33;;;;;;;59.00;21.15;;;;;;;;;;5117598;27;20114;-72
2023/03/21 03:06:00;;;;;;;54.85;19.83;;;;;;;;;;5116656;27;20384;-72
2023/03/21 03:08:42;;;;;;;51.03;19.77;;;;;;;;;;5116556;27;20038;-72
2023/03/21 03:11:08;;;;;;;49.50;18.77;;;;;;;;;;5117403;27;20042;-72
2023/03/21 03:13:38;;;;;;;49.28;18.45;;;;;;;;;;5117225;27;20035;-72
2023/03/21 03:16:04;;;;;;;49.40;18.77;;;;;;;;;;5117551;27;20428;-72
2023/03/21 03:18:52;;;;;;;44.72;18.15;;;;;;;;;;5117364;27;20031;-72
2023/03/21 03:21:20;;;;;;;47.78;17.70;;;;;;;;;;5116993;27;20502;-72
2023/03/21 03:23:48;;;;;;;46.35;18.25;;;;;;;;;;5117138;27;20360;-72
2023/03/21 03:26:15;;;;;;;42.17;16.33;;;;;;;;;;5117284;27;20035;-72
2023/03/21 03:28:43;;;;;;;47.65;16.67;;;;;;;;;;5116624;27;20092;-72
2023/03/21 03:31:13;;;;;;;48.58;16.48;;;;;;;;;;5100154;27;20483;-72
2023/03/21 03:33:40;;;;;;;47.08;18.20;;;;;;;;;;5117053;27;20046;-72
2023/03/21 03:36:09;;;;;;;49.25;16.58;;;;;;;;;;5116046;27;20039;-72
2023/03/21 03:38:36;;;;;;;50.55;17.75;;;;;;;;;;5116706;27;20391;-72
2023/03/21 03:41:08;;;;;;;51.97;17.63;;;;;;;;;;5116198;27;20546;-72
2023/03/21 03:43:43;;;;;;;55.60;19.30;;;;;;;;;;5116339;27;20039;-72
2023/03/21 03:46:12;;;;;;;56.85;20.70;;;;;;;;;;5116623;27;20038;-72
2023/03/21 03:48:45;;;;;;;57.33;18.90;;;;;;;;;;5116840;27;20089;-72
2023/03/21 03:51:27;;;;;;;63.80;19.63;;;;;;;;;;5116830;27;20122;-72
2023/03/21 03:53:56;;;;;;;53.80;19.58;;;;;;;;;;5116584;27;20104;-72
2023/03/21 03:56:24;;;;;;;57.35;19.08;;;;;;;;;;5099299;27;20039;-72
2023/03/21 03:58:50;;;;;;;61.30;20.13;;;;;;;;;;5116219;27;20498;-72
2023/03/21 04:01:16;;;;;;;61.10;19.52;;;;;;;;;;5116283;27;20126;-72
2023/03/21 04:03:44;;;;;;;54.65;19.27;;;;;;;;;;5115672;27;20104;-72
2023/03/21 04:06:10;;;;;;;56.25;18.15;;;;;;;;;;5116037;27;20146;-72
2023/03/21 04:08:36;;;;;;;53.70;18.13;;;;;;;;;;5116354;27;20500;-69
2023/03/21 04:11:02;;;;;;;47.72;16.60;;;;;;;;;;5099547;27;20410;-69
2023/03/21 04:13:28;;;;;;;48.00;17.17;;;;;;;;;;5116323;27;20062;-69
2023/03/21 04:15:54;;;;;;;53.42;17.85;;;;;;;;;;5115744;27;20039;-69
2023/03/21 04:18:22;;;;;;;64.38;18.50;;;;;;;;;;5116111;27;20076;-69
2023/03/21 04:20:50;;;;;;;54.25;17.80;;;;;;;;;;5115851;27;20100;-69
2023/03/21 04:23:18;;;;;;;56.60;17.35;;;;;;;;;;5115621;27;20042;-69
2023/03/21 04:25:44;;;;;;;57.90;17.27;;;;;;;;;;5099308;27;20114;-69
2023/03/21 04:28:10;;;;;;;58.33;18.63;;;;;;;;;;5115689;28;20041;-69
2023/03/21 04:30:37;;;;;;;60.20;17.35;;;;;;;;;;5115703;27;20080;-69
2023/03/21 04:33:03;;;;;;;55.08;17.17;;;;;;;;;;5098870;27;20035;-69
2023/03/21 04:35:29;;;;;;;54.75;17.88;;;;;;;;;;5115702;27;20043;-69
2023/03/21 04:37:55;;;;;;;48.65;17.70;;;;;;;;;;5098075;27;20046;-69
2023/03/21 04:40:21;;;;;;;49.47;16.55;;;;;;;;;;5115420;27;20039;-69
2023/03/21 04:42:48;;;;;;;48.83;16.63;;;;;;;;;;5116025;28;20042;-69
2023/03/21 04:45:15;;;;;;;46.42;16.60;;;;;;;;;;5115668;28;20372;-69
2023/03/21 04:47:41;;;;;;;45.42;16.15;;;;;;;;;;5115361;28;20035;-69
2023/03/21 04:50:08;;;;;;;50.10;16.27;;;;;;;;;;5115772;27;20115;-68
2023/03/21 04:52:34;;;;;;;45.15;15.50;;;;;;;;;;5115571;28;20135;-69
2023/03/21 04:55:01;;;;;;;42.53;17.20;;;;;;;;;;5115559;28;20376;-69
2023/03/21 04:57:27;;;;;;;49.88;16.30;;;;;;;;;;5115550;28;20043;-69
2023/03/21 04:59:53;;;;;;;42.10;16.85;;;;;;;;;;5115421;28;20433;-69
2023/03/21 05:02:19;;;;;;;44.03;16.67;;;;;;;;;;5098678;28;20061;-69
2023/03/21 05:04:45;;;;;;;40.90;15.15;;;;;;;;;;5098621;28;20149;-69
2023/03/21 05:07:11;;;;;;;44.00;16.75;;;;;;;;;;5132461;28;20049;-69
2023/03/21 05:09:37;;;;;;;48.70;16.92;;;;;;;;;;5115151;28;20532;-69
2023/03/21 05:12:04;;;;;;;40.40;16.33;;;;;;;;;;5115316;28;20057;-69
2023/03/21 05:14:30;;;;;;;39.30;16.20;;;;;;;;;;5115553;28;20051;-69
2023/03/21 05:16:56;;;;;;;44.95;16.58;;;;;;;;;;5114817;27;20050;-69
2023/03/21 05:19:24;;;;;;;37.10;16.10;;;;;;;;;;5115299;28;20039;-69
2023/03/21 05:21:50;;;;;;;34.80;15.48;;;;;;;;;;5115020;28;20066;-69
2023/03/21 05:24:18;;;;;;;36.08;16.30;;;;;;;;;;5114873;28;20039;-69
2023/03/21 05:26:49;;;;;;;40.05;17.13;;;;;;;;;;5114986;28;20474;-69
2023/03/21 05:29:15;;;;;;;35.70;15.15;;;;;;;;;;5115377;28;20054;-69
2023/03/21 05:31:41;;;;;;;34.92;14.82;;;;;;;;;;5114903;28;20115;-69
2023/03/21 05:34:07;;;;;;;34.35;15.02;;;;;;;;;;5115062;28;20042;-69
2023/03/21 05:36:34;;;;;;;30.98;14.55;;;;;;;;;;5097715;28;20042;-69
2023/03/21 05:39:01;;;;;;;34.50;14.63;;;;;;;;;;5114867;28;20431;-69
2023/03/21 05:41:27;;;;;;;32.85;14.50;;;;;;;;;;5114694;28;20510;-69
2023/03/21 05:43:53;;;;;;;36.67;15.18;;;;;;;;;;5115131;27;20042;-69
2023/03/21 05:46:19;;;;;;;32.92;15.15;;;;;;;;;;5114591;28;20114;-69
2023/03/21 05:48:45;;;;;;;32.50;15.02;;;;;;;;;;5098249;28;20232;-69
2023/03/21 05:51:12;;;;;;;30.17;15.57;;;;;;;;;;5115053;28;20078;-69
2023/03/21 05:53:38;;;;;;;31.60;14.68;;;;;;;;;;5115044;28;20422;-69
2023/03/21 05:56:04;;;;;;;33.50;14.63;;;;;;;;;;5115233;28;20035;-69
2023/03/21 05:58:30;;;;;;;32.72;14.98;;;;;;;;;;5114999;27;20479;-69
2023/03/21 06:00:56;;;;;;;35.30;15.57;;;;;;;;;;5117927;27;20455;-69
2023/03/21 06:03:22;;;;;;;31.02;14.68;;;;;;;;;;5101078;27;20499;-69
2023/03/21 06:05:48;;;;;;;29.90;14.10;;;;;;;;;;5118072;27;20059;-69
2023/03/21 06:08:14;;;;;;;30.60;14.48;;;;;;;;;;5114784;27;20040;-69
2023/03/21 06:10:40;;;;;;;34.80;13.85;;;;;;;;;;5116949;27;20046;-69
2023/03/21 06:13:06;;;;;;;31.25;14.63;;;;;;;;;;5118450;27;20043;-69
2023/03/21 06:15:33;;;;;;;28.50;13.43;;;;;;;;;;5148651;27;20457;-69
2023/03/21 06:17:59;;;;;;;33.83;14.32;;;;;;;;;;5111212;27;20114;-68
2023/03/21 06:20:25;;;;;;;27.67;13.82;;;;;;;;;;5116795;27;20096;-69
2023/03/21 06:22:51;;;;;;;30.13;13.98;;;;;;;;;;5116768;27;20066;-68
2023/03/21 06:25:17;;;;;;;29.08;13.50;;;;;;;;;;5116424;27;20075;-69
2023/03/21 06:27:43;;;;;;;30.35;14.27;;;;;;;;;;5135722;27;20062;-68
2023/03/21 06:30:10;;;;;;;29.08;14.07;;;;;;;;;;5097134;27;20039;-68
2023/03/21 06:32:36;;;;;;;31.38;13.32;;;;;;;;;;5116947;27;20064;-69
2023/03/21 06:35:02;;;;;;;29.42;14.15;;;;;;;;;;5116136;27;20114;-69
2023/03/21 06:37:28;;;;;;;28.08;13.90;;;;;;;;;;5116514;27;20530;-69
2023/03/21 06:39:54;;;;;;;26.13;13.40;;;;;;;;;;5116101;27;20058;-69
2023/03/21 06:42:20;;;;;;;28.42;13.48;;;;;;;;;;5116524;27;20037;-69
2023/03/21 06:44:46;;;;;;;28.05;13.88;;;;;;;;;;5116395;27;20038;-69
2023/03/21 06:47:12;;;;;;;27.00;13.65;;;;;;;;;;5099178;27;20083;-69
2023/03/21 06:49:39;;;;;;;26.50;13.88;;;;;;;;;;5116084;27;20503;-69
2023/03/21 06:52:05;;;;;;;26.05;13.05;;;;;;;;;;5116241;27;20192;-69
2023/03/21 06:54:31;;;;;;;26.88;12.73;;;;;;;;;;5116196;27;20043;-69
2023/03/21 06:56:58;;;;;;;25.17;12.68;;;;;;;;;;5115976;27;20091;-69
2023/03/21 06:59:24;;;;;;;25.50;12.25;;;;;;;;;;5098726;27;20482;-69
2023/03/21 07:01:50;;;;;;;27.00;12.98;;;;;;;;;;5115846;27;20046;-69
2023/03/21 07:04:16;;;;;;;29.63;13.35;;;;;;;;;;5115828;27;20486;-69
2023/03/21 07:06:43;;;;;;;28.63;13.23;;;;;;;;;;5113442;27;20043;-70
2023/03/21 07:09:09;;;;;;;24.90;12.35;;;;;;;;;;5115754;27;20122;-72
2023/03/21 07:11:35;;;;;;;24.90;12.50;;;;;;;;;;5099309;27;20091;-72
2023/03/21 07:14:01;;;;;;;24.92;12.38;;;;;;;;;;5117082;27;20068;-71
2023/03/21 07:16:27;;;;;;;28.83;14.15;;;;;;;;;;5116762;27;20045;-71
2023/03/21 07:18:54;;;;;;;29.50;14.02;;;;;;;;;;5115627;27;20039;-71
2023/03/21 07:21:20;;;;;;;28.83;13.82;;;;;;;;;;5116917;27;20051;-71
2023/03/21 07:23:46;;;;;;;27.05;13.82;;;;;;;;;;5099866;27;20035;-71
2023/03/21 07:26:14;;;;;;;30.38;14.27;;;;;;;;;;5100182;27;20420;-71
2023/03/21 07:28:40;;;;;;;28.73;14.18;;;;;;;;;;5099791;27;20043;-72
2023/03/21 07:31:08;;;;;;;29.35;14.43;;;;;;;;;;5116998;27;20035;-72
2023/03/21 07:33:34;;;;;;;30.85;14.63;;;;;;;;;;5117259;27;20027;-72
2023/03/21 07:36:01;;;;;;;29.55;14.85;;;;;;;;;;5117262;27;20128;-72
2023/03/21 07:38:29;;;;;;;27.02;14.20;;;;;;;;;;5098371;27;20031;-72
2023/03/21 07:40:55;;;;;;;27.17;14.82;;;;;;;;;;5115835;27;20062;-72
2023/03/21 07:43:21;;;;;;;29.42;14.85;;;;;;;;;;5116024;27;20150;-72
2023/03/21 07:45:47;;;;;;;30.23;14.55;;;;;;;;;;5099398;27;20378;-72
2023/03/21 07:48:16;;;;;;;30.50;15.85;;;;;;;;;;5098452;27;20039;-72
2023/03/21 07:50:42;;;;;;;28.88;14.48;;;;;;;;;;5115598;27;20398;-72
2023/03/21 07:53:08;;;;;;;30.90;15.15;;;;;;;;;;5115670;27;20107;-72
2023/03/21 07:55:35;;;;;;;26.88;13.93;;;;;;;;;;5115237;27;21322;-71
2023/03/21 07:58:01;;;;;;;24.13;13.23;;;;;;;;;;5115568;27;20084;-72
2023/03/21 08:00:28;;;;;;;25.10;13.93;;;;;;;;;;5115042;27;20486;-72
2023/03/21 08:02:55;;;;;;;28.40;14.32;;;;;;;;;;5115202;27;20425;-71
2023/03/21 08:05:25;;;;;;;28.45;14.63;;;;;;;;;;5112609;27;20054;-71
2023/03/21 08:07:51;;;;;;;24.00;12.93;;;;;;;;;;5115282;27;20483;-71
2023/03/21 08:10:18;;;;;;;26.92;14.75;;;;;;;;;;5114786;27;20543;-71
2023/03/21 08:12:44;;;;;;;25.20;13.38;;;;;;;;;;5114861;27;20050;-71
2023/03/21 08:15:11;;;;;;;27.25;14.85;;;;;;;;;;5098076;27;20376;-71
2023/03/21 08:17:38;;;;;;;26.48;14.77;;;;;;;;;;5115229;27;20039;-71
2023/03/21 08:20:09;;;;;;;26.25;14.25;;;;;;;;;;5114739;27;20055;-71
2023/03/21 08:22:36;;;;;;;28.85;14.82;;;;;;;;;;5112580;27;20085;-71
2023/03/21 08:25:04;;;;;;;27.20;13.85;;;;;;;;;;5114896;27;20528;-71
2023/03/21 08:27:30;;;;;;;28.80;14.98;;;;;;;;;;5114869;27;20062;-71
2023/03/21 08:29:56;;;;;;;28.95;15.10;;;;;;;;;;5098005;27;20039;-71
2023/03/21 08:32:29;;;;;;;33.25;15.70;;;;;;;;;;5097986;27;20150;-71
2023/03/21 08:34:59;;;;;;;27.25;15.38;;;;;;;;;;5114704;27;20082;-71
2023/03/21 08:37:25;;;;;;;26.92;15.25;;;;;;;;;;5114995;28;20038;-72
2023/03/21 08:39:52;;;;;;;29.95;16.73;;;;;;;;;;5114571;27;20066;-72
2023/03/21 08:42:19;;;;;;;35.33;16.52;;;;;;;;;;5114575;27;20055;-72
2023/03/21 08:44:46;;;;;;;31.20;17.17;;;;;;;;;;5114431;27;20430;-72
2023/03/21 08:47:12;;;;;;;30.42;17.27;;;;;;;;;;5114026;28;20050;-72
2023/03/21 08:49:38;;;;;;;35.13;17.85;;;;;;;;;;5112240;27;20035;-72
2023/03/21 08:52:05;;;;;;;31.85;18.13;;;;;;;;;;5114666;27;20035;-72
2023/03/21 08:54:31;;;;;;;39.10;20.55;;;;;;;;;;5114431;28;20491;-72
2023/03/21 08:56:57;;;;;;;37.83;19.45;;;;;;;;;;5097826;28;20038;-68
2023/03/21 08:59:23;;;;;;;40.47;21.48;;;;;;;;;;5097434;28;20039;-69
2023/03/21 09:01:49;;;;;;;41.33;22.02;;;;;;;;;;5114463;28;20031;-69
2023/03/21 09:04:17;;;;;;;46.67;23.52;;;;;;;;;;5114354;28;20050;-69
2023/03/21 09:06:44;;;;;;;44.38;23.35;;;;;;;;;;5114466;28;20415;-69
2023/03/21 09:09:11;;;;;;;47.40;23.83;;;;;;;;;;5115681;28;20043;-69
2023/03/21 09:11:37;;;;;;;44.38;22.63;;;;;;;;;;5098519;28;20075;-69
2023/03/21 09:14:03;;;;;;;45.50;21.92;;;;;;;;;;5150239;27;20364;-69
2023/03/21 09:16:30;;;;;;;48.92;22.80;;;;;;;;;;5115376;27;20040;-69
2023/03/21 09:18:57;;;;;;;43.65;22.70;;;;;;;;;;5098187;28;20035;-68
2023/03/21 09:21:24;;;;;;;45.55;21.35;;;;;;;;;;5115404;28;20031;-68
2023/03/21 09:23:55;;;;;;;50.22;21.23;;;;;;;;;;5098081;28;20130;-68
2023/03/21 09:26:22;;;;;;;41.65;20.48;;;;;;;;;;5120764;28;20034;-69
2023/03/21 09:28:48;;;;;;;46.40;20.52;;;;;;;;;;5125064;28;20539;-69
2023/03/21 09:31:18;;;;;;;42.13;19.48;;;;;;;;;;5113758;28;20117;-69
2023/03/21 09:33:44;;;;;;;44.97;20.17;;;;;;;;;;5114418;27;20114;-68
2023/03/21 09:36:12;;;;;;;39.67;18.23;;;;;;;;;;5101423;27;20031;-68
2023/03/21 09:38:41;;;;;;;47.63;19.00;;;;;;;;;;5117602;27;20039;-66
2023/03/21 09:41:32;;;;;;;35.40;18.23;;;;;;;;;;5117708;27;20539;-66
2023/03/21 09:44:07;;;;;;;38.65;17.00;;;;;;;;;;5116723;27;20509;-66
2023/03/21 09:46:51;;;;;;;38.35;16.50;;;;;;;;;;5116968;27;20031;-66
2023/03/21 09:49:24;;;;;;;43.53;17.08;;;;;;;;;;5116250;27;20114;-67
2023/03/21 09:51:52;;;;;;;31.88;15.07;;;;;;;;;;5144476;27;20055;-67
2023/03/21 09:54:22;;;;;;;33.47;15.43;;;;;;;;;;5100273;27;20088;-66
2023/03/21 09:56:49;;;;;;;34.88;14.80;;;;;;;;;;5117568;27;20050;-67
2023/03/21 09:59:40;;;;;;;33.28;14.35;;;;;;;;;;5098074;27;20077;-67
2023/03/21 10:02:19;;;;;;;32.33;14.02;;;;;;;;;;5136764;27;20114;-68
2023/03/21 10:04:45;;;;;;;33.15;14.55;;;;;;;;;;5117979;27;20084;-67
2023/03/21 10:07:17;;;;;;;33.00;13.95;;;;;;;;;;5117962;27;20082;-68
2023/03/21 10:09:45;;;;;;;26.27;12.95;;;;;;;;;;5118224;27;20043;-67
2023/03/21 10:12:14;;;;;;;34.55;15.05;;;;;;;;;;5118568;27;20130;-68
2023/03/21 10:14:41;;;;;;;35.38;14.13;;;;;;;;;;5118597;27;20070;-67
2023/03/21 10:17:10;;;;;;;30.45;13.57;;;;;;;;;;5101740;27;20109;-67
2023/03/21 10:19:36;;;;;;;37.78;13.75;;;;;;;;;;5118759;27;20130;-67
2023/03/21 10:22:03;;;;;;;33.35;13.70;;;;;;;;;;5101661;27;20043;-68
2023/03/21 10:24:31;;;;;;;32.95;15.73;;;;;;;;;;5118516;27;20042;-69
2023/03/21 10:26:57;;;;;;;38.67;14.57;;;;;;;;;;5101865;27;20497;-68
2023/03/21 10:29:26;;;;;;;35.13;14.63;;;;;;;;;;5118434;27;20043;-68
2023/03/21 10:31:54;;;;;;;37.72;15.50;;;;;;;;;;5118327;27;20054;-68
2023/03/21 10:34:26;;;;;;;36.58;14.88;;;;;;;;;;5118322;27;20104;-68
2023/03/21 10:36:52;;;;;;;29.20;14.40;;;;;;;;;;5117966;27;20043;-68
2023/03/21 10:39:27;;;;;;;29.95;15.05;;;;;;;;;;5116707;27;20046;-68
2023/03/21 10:41:53;;;;;;;34.45;15.45;;;;;;;;;;5096205;27;20463;-68
2023/03/21 10:44:20;;;;;;;32.88;14.45;;;;;;;;;;5099204;27;20429;-68
2023/03/21 10:46:54;;;;;;;27.83;13.10;;;;;;;;;;5114097;27;20505;-68
2023/03/21 10:49:20;;;;;;;28.85;13.35;;;;;;;;;;5099852;27;20475;-68
2023/03/21 10:51:47;;;;;;;27.95;12.75;;;;;;;;;;5116500;27;20038;-68
2023/03/21 10:54:15;;;;;;;35.15;13.10;;;;;;;;;;5099898;27;20042;-68
2023/03/21 10:56:48;;;;;;;31.45;12.68;;;;;;;;;;5116501;27;20118;-68
2023/03/21 10:59:17;;;;;;;29.65;13.43;;;;;;;;;;5116291;27;20046;-68
2023/03/21 11:01:47;;;;;;;26.30;12.77;;;;;;;;;;5116733;27;20034;-68
2023/03/21 11:04:21;;;;;;;31.95;12.95;;;;;;;;;;5099180;27;20463;-68
2023/03/21 11:06:51;;;;;;;24.88;12.07;;;;;;;;;;5099233;27;20057;-68
2023/03/21 11:09:20;;;;;;;30.52;12.25;;;;;;;;;;5133938;27;20114;-68
2023/03/21 11:12:16;;;;;;;32.35;12.45;;;;;;;;;;5098764;27;20479;-68
2023/03/21 11:14:43;;;;;;;33.05;11.95;;;;;;;;;;5094037;27;20058;-68
2023/03/21 11:17:18;;;;;;;31.90;13.82;;;;;;;;;;5116365;27;20054;-68
2023/03/21 11:19:57;;;;;;;26.67;12.65;;;;;;;;;;5117478;27;20142;-68
2023/03/21 11:22:25;;;;;;;27.13;13.13;;;;;;;;;;5135747;27;20069;-69
2023/03/21 11:24:58;;;;;;;31.17;13.18;;;;;;;;;;5100197;27;20034;-68
2023/03/21 11:27:28;;;;;;;22.52;12.50;;;;;;;;;;5117298;27;20035;-69
2023/03/21 11:29:56;;;;;;;25.63;12.57;;;;;;;;;;5117189;27;20126;-68
2023/03/21 11:32:22;;;;;;;33.20;14.68;;;;;;;;;;5117066;27;20152;-68
2023/03/21 11:35:03;;;;;;;27.05;12.57;;;;;;;;;;5117038;27;20483;-68
2023/03/21 11:37:53;;;;;;;27.02;12.07;;;;;;;;;;5117268;27;20046;-68
2023/03/21 11:40:22;;;;;;;26.63;12.55;;;;;;;;;;5103949;27;20144;-68
2023/03/21 11:42:50;;;;;;;26.08;12.73;;;;;;;;;;5104406;27;20035;-69
2023/03/21 11:45:22;;;;;;;26.90;12.90;;;;;;;;;;5133911;27;20043;-69
2023/03/21 11:47:50;;;;;;;30.25;13.07;;;;;;;;;;5133795;27;20043;-69
2023/03/21 11:50:26;;;;;;;32.50;12.77;;;;;;;;;;5133680;27;20082;-69
2023/03/21 11:53:07;;;;;;;31.90;15.75;;;;;;;;;;5113901;27;20046;-69
2023/03/21 11:55:59;;;;;;;25.30;12.23;;;;;;;;;;5096050;28;20050;-69
2023/03/21 11:58:35;;;;;;;32.28;13.45;;;;;;;;;;5112161;27;20050;-68
2023/03/21 12:01:11;;;;;;;26.95;13.20;;;;;;;;;;5116221;27;20386;-68
2023/03/21 12:04:17;;;;;;;25.38;12.95;;;10.70;99.90;;;;;;5115338;27;20034;-68
2023/03/21 12:06:54;;;;;;;42.72;14.70;;;;;;;;;;5098107;28;20056;-67
2023/03/21 12:09:38;;;;;;;32.70;14.98;;;;;;;;;;5091372;28;20055;-68
2023/03/21 12:12:42;;;;;;;27.42;13.77;;;10.70;99.90;;;;;;5091532;28;20042;-68
2023/03/21 12:15:37;;;;;;;27.27;13.35;;;;;;;;;;5091503;28;20040;-69
2023/03/21 12:18:06;;;;;;;31.98;13.65;;;;;;;;;;5019416;28;20084;-68
2023/03/21 12:20:41;;;;;;;33.70;14.07;;;;;;;;;;5074315;28;20040;-68
2023/03/21 12:23:10;;;;;;;35.97;14.20;;;;;;;;;;5091202;28;20036;-68
2023/03/21 12:25:44;;;;;;;34.47;13.57;;;;;;;;;;5074325;28;20047;-68
2023/03/21 12:28:26;;;;;;;29.40;13.73;;;;;;;;;;5091234;28;20040;-68
2023/03/21 12:30:55;;;;;;;29.55;13.75;;;;;;;;;;5091276;28;20392;-67
2023/03/21 12:33:34;;;;;;;32.22;14.52;;;;;;;;;;5074235;28;20039;-70
2023/03/21 12:36:06;;;;;;;30.92;14.73;;;;;;;;;;5091086;28;20079;-69
2023/03/21 12:38:39;;;;;;;26.80;14.13;;;;;;;;;;5090985;28;20040;-68
2023/03/21 12:41:16;;;;;;;29.08;14.98;;;;;;;;;;5091066;28;20595;-68
2023/03/21 12:43:52;;;;;;;26.73;15.70;;;;;;;;;;5090928;28;20043;-68
2023/03/21 12:46:27;;;;;;;30.50;14.75;;;;;;;;;;5091825;28;20036;-68
2023/03/21 12:49:00;;;;;;;31.75;15.95;;;;;;;;;;5092242;28;20035;-68
2023/03/21 12:51:31;;;;;;;31.40;16.50;;;;;;;;;;5075086;28;20115;-68
2023/03/21 12:54:03;;;;;;;26.48;16.05;;;;;;;;;;5091881;28;20074;-68
2023/03/21 12:56:53;;;;;;;31.30;15.90;;;;;;;;;;5092204;28;20028;-68
2023/03/21 12:59:35;;;;;;;33.60;15.68;;;;;;;;;;5054747;28;20172;-68
2023/03/21 13:02:08;;;;;;;34.70;16.77;;;;;;;;;;5092325;28;20063;-68
2023/03/21 13:04:37;;;;;;;39.75;17.55;;;;;;;;;;5091832;28;20036;-68
2023/03/21 13:07:06;;;;;;;32.72;16.77;;;;;;;;;;5108111;28;20048;-68
2023/03/21 13:09:39;;;;;;;32.67;17.27;;;;;;;;;;5115658;28;20047;-68
2023/03/21 13:12:21;;;;;;;29.98;16.73;;;;;;;;;;5116488;28;20475;-68
2023/03/21 13:14:55;;;;;;;31.95;16.35;;;;;;;;;;5116501;28;20491;-68
2023/03/21 13:17:35;;;;;;;30.40;16.10;;;;;;;;;;5116354;28;20499;-70
2023/03/21 13:20:06;;;;;;;31.00;16.88;;;;;;;;;;5117591;28;20487;-67
2023/03/21 13:22:32;;;;;;;29.08;16.90;;;;;;;;;;5116609;28;20085;-67
2023/03/21 13:25:19;;;;;;;30.25;16.45;;;;;;;;;;5116190;28;20122;-67
2023/03/21 13:27:51;;;;;;;37.15;18.80;;;;;;;;;;5116085;28;20130;-68
2023/03/21 13:30:19;;;;;;;39.28;18.13;;;;;;;;;;5116082;28;20039;-68
2023/03/21 13:32:46;;;;;;;34.30;17.55;;;;;;;;;;5116523;28;20054;-68
2023/03/21 13:35:19;;;;;;;34.78;17.75;;;;;;;;;;5099024;28;20040;-67
2023/03/21 13:37:50;;;;;;;30.20;17.88;;;;;;;;;;5116040;28;20062;-68
2023/03/21 13:40:49;;;;;;;36.80;17.27;;;;;;;;;;5115657;28;20506;-68
2023/03/21 13:43:35;;;;;;;34.25;17.58;;;;;;;;;;5060899;28;20051;-68
2023/03/21 13:46:10;;;;;;;30.67;16.92;;;;;;;;;;5115720;28;20043;-68
2023/03/21 13:48:57;;;;;;;30.95;16.63;;;12.00;99.90;;;;;;5115801;28;20047;-68
2023/03/21 13:51:35;;;;;;;34.35;17.95;;;;;;;;;;5115590;28;20039;-68
2023/03/21 13:54:08;;;;;;;34.00;16.65;;;;;;;;;;5098649;28;20050;-68
2023/03/21 13:56:46;;;;;;;32.13;17.92;;;;;;;;;;5115649;28;20040;-68
2023/03/21 13:59:18;;;;;;;28.35;16.23;;;;;;;;;;5115390;28;20051;-68
2023/03/21 14:01:57;;;;;;;33.58;16.88;;;;;;;;;;5115336;28;20061;-68
2023/03/21 14:04:25;;;;;;;33.97;16.17;;;;;;;;;;5115238;28;20040;-68
2023/03/21 14:06:56;;;;;;;29.20;14.25;;;;;;;;;;5115381;28;20058;-68
2023/03/21 14:09:32;;;;;;;29.67;15.65;;;;;;;;;;5115444;28;20096;-68
2023/03/21 14:11:58;;;;;;;27.17;13.32;;;;;;;;;;5098612;28;20522;-68
2023/03/21 14:14:28;;;;;;;33.42;14.45;;;;;;;;;;5115235;28;20495;-67
2023/03/21 14:16:54;;;;;;;24.02;13.73;;;;;;;;;;5115232;28;20486;-67
2023/03/21 14:19:20;;;;;;;27.02;12.65;;;;;;;;;;5097576;28;20047;-68
2023/03/21 14:21:49;;;;;;;30.33;13.38;;;;;;;;;;5114774;28;20041;-69
2023/03/21 14:24:16;;;;;;;26.67;13.10;;;;;;;;;;5115207;28;20048;-67
2023/03/21 14:26:53;;;;;;;25.15;12.63;;;;;;;;;;5115172;28;20387;-67
2023/03/21 14:29:22;;;;;;;25.85;13.05;;;;;;;;;;5114946;28;20049;-67